Time;durP1;ratioP1;P1;durP2;ratioP2;P2;SDS_P1;SDS_P2;PMS_P1;PMS_P2;Temp;Humidity;BMP_temperature;BMP_pressure;BME280_temperature;BME280_humidity;BME280_pressure;Samples;Min_cycle;Max_cycle;Signal;HPM_P1;HPM_P2
2021/05/11 00:01:20;;;;;;;1.67;0.50;;;16.00;61.50;;;;;;5037022;28;20033;-63
2021/05/11 00:03:51;;;;;;;0.55;0.50;;;16.00;61.70;;;;;;5034230;28;20091;-64
2021/05/11 00:06:19;;;;;;;0.75;0.50;;;15.90;61.50;;;;;;5033519;28;20545;-63
2021/05/11 00:08:51;;;;;;;0.38;0.38;;;15.90;61.80;;;;;;5031705;28;20068;-63
2021/05/11 00:11:22;;;;;;;0.60;0.60;;;15.90;61.60;;;;;;5029006;28;20053;-63
2021/05/11 00:13:49;;;;;;;0.82;0.50;;;15.90;61.50;;;;;;5033519;28;20045;-63
2021/05/11 00:16:22;;;;;;;0.55;0.50;;;16.00;61.40;;;;;;5036180;28;20736;-63
2021/05/11 00:18:53;;;;;;;0.50;0.50;;;16.00;61.40;;;;;;5037441;28;20030;-63
2021/05/11 00:21:21;;;;;;;0.60;0.60;;;16.10;61.80;;;;;;5036588;28;20112;-62
2021/05/11 00:23:51;;;;;;;0.60;0.60;;;16.10;61.70;;;;;;5033809;28;20585;-63
2021/05/11 00:26:21;;;;;;;0.60;0.60;;;16.10;61.40;;;;;;5033872;28;20095;-64
2021/05/11 00:28:49;;;;;;;0.95;0.80;;;16.20;61.50;;;;;;5028909;28;20115;-63
2021/05/11 00:31:20;;;;;;;0.88;0.88;;;16.20;61.30;;;;;;5033998;28;20049;-63
2021/05/11 00:33:52;;;;;;;0.50;0.50;;;16.20;61.20;;;;;;5033539;28;20029;-63
2021/05/11 00:36:20;;;;;;;0.82;0.82;;;16.10;61.20;;;;;;5032413;28;20042;-64
2021/05/11 00:38:48;;;;;;;0.80;0.80;;;16.10;61.20;;;;;;5035466;28;20026;-63
2021/05/11 00:41:16;;;;;;;0.80;0.80;;;16.10;61.60;;;;;;5032218;28;20034;-63
2021/05/11 00:43:51;;;;;;;0.82;0.82;;;16.00;61.50;;;;;;5030655;28;20108;-64
2021/05/11 00:46:22;;;;;;;0.60;0.60;;;16.00;62.00;;;;;;5035042;28;20132;-63
2021/05/11 00:48:47;;;;;;;0.63;0.63;;;15.90;61.60;;;;;;5036665;28;20592;-62
2021/05/11 00:51:16;;;;;;;0.63;0.63;;;15.90;61.80;;;;;;5035314;28;20131;-63
2021/05/11 00:53:42;;;;;;;0.77;0.77;;;15.90;62.00;;;;;;5033175;28;20095;-63
2021/05/11 00:56:13;;;;;;;1.15;0.90;;;15.90;61.90;;;;;;5032137;28;20037;-64
2021/05/11 00:58:43;;;;;;;1.27;0.80;;;15.90;62.10;;;;;;5034124;28;20530;-63
2021/05/11 01:01:11;;;;;;;0.60;0.60;;;15.90;62.60;;;;;;5031906;28;20036;-63
2021/05/11 01:03:41;;;;;;;0.77;0.63;;;15.90;62.30;;;;;;5035552;28;20032;-63
2021/05/11 01:06:11;;;;;;;0.80;0.80;;;15.90;62.40;;;;;;5034395;28;20041;-63
2021/05/11 01:08:40;;;;;;;0.70;0.70;;;15.90;62.70;;;;;;5031260;28;20416;-63
2021/05/11 01:11:10;;;;;;;1.15;0.60;;;15.90;62.60;;;;;;5031262;28;20653;-64
2021/05/11 01:13:40;;;;;;;0.70;0.70;;;15.90;62.80;;;;;;5031516;28;20108;-63
2021/05/11 01:16:12;;;;;;;1.25;0.68;;;15.90;62.80;;;;;;5033058;28;20033;-63
2021/05/11 01:18:40;;;;;;;1.10;0.68;;;15.90;62.90;;;;;;5034636;28;20033;-63
2021/05/11 02:24:17;;;;;;;1.23;1.23;;;15.30;64.50;;;;;;5035223;28;20040;-63
2021/05/11 02:26:45;;;;;;;1.42;1.33;;;15.30;64.30;;;;;;5034166;28;20263;-63
2021/05/11 02:29:14;;;;;;;1.17;1.10;;;15.30;64.60;;;;;;5032778;28;20049;-63
2021/05/11 02:31:46;;;;;;;1.23;1.20;;;15.40;64.90;;;;;;5030321;28;20108;-63
2021/05/11 02:34:14;;;;;;;1.35;1.25;;;15.40;65.00;;;;;;5033145;28;20591;-63
2021/05/11 02:36:39;;;;;;;1.30;1.20;;;15.40;64.60;;;;;;5032417;28;20249;-63
2021/05/11 02:39:12;;;;;;;1.33;1.23;;;15.40;64.60;;;;;;5028607;28;20071;-63
2021/05/11 02:41:44;;;;;;;1.52;1.38;;;15.40;64.70;;;;;;5033510;28;20041;-63
2021/05/11 02:44:15;;;;;;;1.25;1.17;;;15.50;64.60;;;;;;5035968;28;20112;-63
2021/05/11 02:46:41;;;;;;;1.58;1.30;;;15.50;64.50;;;;;;5032742;28;20120;-63
2021/05/11 02:49:11;;;;;;;1.27;1.17;;;15.50;64.60;;;;;;5032578;28;20945;-63
2021/05/11 02:51:42;;;;;;;1.40;1.30;;;15.50;64.80;;;;;;5030399;28;20034;-63
2021/05/11 02:54:09;;;;;;;1.48;1.30;;;15.50;64.90;;;;;;5032756;28;20098;-63
2021/05/11 02:56:37;;;;;;;1.50;1.40;;;15.40;64.60;;;;;;5028478;28;20447;-63
2021/05/11 02:59:08;;;;;;;1.42;1.33;;;15.40;64.70;;;;;;5037055;28;20151;-63
2021/05/11 03:01:41;;;;;;;1.40;1.30;;;15.40;64.60;;;;;;5033181;28;20737;-63
2021/05/11 03:04:11;;;;;;;2.15;1.20;;;15.30;65.00;;;;;;5028900;28;20033;-63
2021/05/11 03:06:42;;;;;;;1.52;1.33;;;15.30;65.20;;;;;;5031273;28;20053;-63
2021/05/11 03:09:12;;;;;;;3.25;1.50;;;15.30;65.20;;;;;;5031743;28;20567;-64
2021/05/11 03:11:40;;;;;;;1.40;1.30;;;15.30;65.20;;;;;;5029440;28;20154;-63
2021/05/11 03:14:08;;;;;;;2.00;1.40;;;15.20;65.30;;;;;;5031281;28;20034;-63
2021/05/11 03:16:36;;;;;;;1.50;1.23;;;15.20;65.50;;;;;;5029847;28;20041;-63
2021/05/11 03:19:06;;;;;;;1.50;1.40;;;15.20;65.90;;;;;;5031182;28;20056;-63
2021/05/11 03:21:34;;;;;;;2.10;1.50;;;15.20;66.00;;;;;;5028376;28;20051;-63
2021/05/11 03:24:07;;;;;;;1.45;1.35;;;15.20;66.10;;;;;;5035759;28;20040;-63
2021/05/11 03:26:37;;;;;;;1.20;1.10;;;15.20;66.30;;;;;;5032571;28;20038;-63
2021/05/11 03:29:10;;;;;;;1.17;1.08;;;15.20;65.90;;;;;;5028781;28;20029;-63
2021/05/11 03:31:35;;;;;;;2.28;1.10;;;15.20;65.80;;;;;;5030472;28;20065;-63
2021/05/11 03:34:03;;;;;;;1.30;1.13;;;15.20;65.80;;;;;;5027018;28;20061;-63
2021/05/11 03:36:29;;;;;;;1.35;1.25;;;15.20;65.90;;;;;;5029184;28;20116;-63
2021/05/11 03:39:02;;;;;;;1.15;1.10;;;15.20;65.90;;;;;;5026997;28;20120;-62
2021/05/11 03:41:36;;;;;;;1.40;1.30;;;15.30;66.20;;;;;;5023817;28;20138;-63
2021/05/11 03:44:16;;;;;;;1.35;1.25;;;15.30;66.20;;;;;;5030092;28;20036;-63
2021/05/11 03:46:44;;;;;;;1.27;1.20;;;15.30;65.90;;;;;;5033535;28;20492;-63
2021/05/11 03:49:12;;;;;;;2.55;2.35;;;15.30;66.00;;;;;;5025802;28;20151;-63
2021/05/11 03:51:41;;;;;;;5.15;4.30;;;15.20;66.00;;;;;;5026900;28;20029;-63
2021/05/11 03:54:13;;;;;;;5.97;3.13;;;15.20;66.20;;;;;;5027484;28;20083;-64
2021/05/11 03:56:43;;;;;;;3.40;3.08;;;15.20;65.90;;;;;;5026963;28;20038;-62
2021/05/11 03:59:11;;;;;;;2.70;2.50;;;15.20;66.00;;;;;;5026675;28;20033;-64
2021/05/11 04:01:39;;;;;;;1.52;1.42;;;15.20;66.00;;;;;;5025338;28;20672;-63
2021/05/11 04:04:09;;;;;;;1.60;1.42;;;15.10;66.00;;;;;;5026220;28;20053;-63
2021/05/11 04:06:39;;;;;;;1.50;1.40;;;15.10;66.90;;;;;;5028879;28;20045;-63
2021/05/11 04:09:17;;;;;;;2.97;1.42;;;15.10;66.30;;;;;;5031759;28;20033;-63
2021/05/11 04:17:00;;;;;;;1.60;1.50;;;15.00;66.20;;;;;;5032440;28;20119;-63
2021/05/11 04:19:30;;;;;;;1.50;1.40;;;14.90;66.00;;;;;;5029567;28;20040;-63
2021/05/11 04:22:01;;;;;;;1.50;1.40;;;14.90;66.30;;;;;;5028210;28;20065;-64
2021/05/11 04:24:28;;;;;;;3.00;1.40;;;14.90;67.10;;;;;;5032738;28;20128;-62
2021/05/11 04:26:56;;;;;;;1.88;1.77;;;14.90;66.90;;;;;;5035138;28;20033;-63
2021/05/11 04:29:26;;;;;;;1.58;1.48;;;14.90;67.10;;;;;;5029044;28;20059;-62
2021/05/11 04:31:59;;;;;;;2.72;1.42;;;14.90;67.20;;;;;;5023845;28;20030;-64
2021/05/11 04:34:25;;;;;;;2.60;1.65;;;14.90;67.10;;;;;;5024922;28;20504;-63
2021/05/11 04:36:53;;;;;;;1.75;1.65;;;14.90;67.10;;;;;;5024685;28;20041;-63
2021/05/11 04:39:21;;;;;;;1.88;1.77;;;15.00;67.30;;;;;;5028423;28;20033;-61
2021/05/11 04:41:51;;;;;;;1.80;1.70;;;15.00;67.50;;;;;;5047672;28;20063;-63
2021/05/11 04:44:20;;;;;;;1.80;1.70;;;15.10;67.30;;;;;;5035692;28;20496;-62
2021/05/11 04:46:56;;;;;;;2.75;1.52;;;15.10;67.10;;;;;;5038075;28;20041;-63
2021/05/11 04:49:26;;;;;;;4.22;2.05;;;15.10;67.00;;;;;;5036699;28;20034;-63
2021/05/11 04:51:54;;;;;;;2.13;1.80;;;15.20;66.90;;;;;;5039537;28;20067;-62
2021/05/11 04:54:22;;;;;;;2.50;1.92;;;15.30;66.70;;;;;;5038320;28;20030;-63
2021/05/11 04:56:50;;;;;;;2.15;1.95;;;15.30;66.70;;;;;;5035526;28;20033;-62
2021/05/11 04:59:16;;;;;;;2.75;2.03;;;15.30;66.80;;;;;;5036956;28;20040;-62
2021/05/11 05:01:46;;;;;;;2.88;1.70;;;15.40;66.50;;;;;;5035770;28;20037;-63
2021/05/11 05:04:13;;;;;;;3.80;1.85;;;15.50;66.40;;;;;;5039459;28;20041;-62
2021/05/11 05:06:44;;;;;;;3.25;1.58;;;15.50;66.20;;;;;;5037618;28;20029;-63
2021/05/11 05:09:09;;;;;;;3.03;1.48;;;15.50;66.10;;;;;;5039088;28;20033;-63
2021/05/11 05:11:39;;;;;;;6.00;1.50;;;15.60;66.20;;;;;;5036498;28;20091;-63
2021/05/11 05:14:11;;;;;;;1.80;1.60;;;15.60;66.20;;;;;;5036135;28;20521;-63
2021/05/11 05:16:37;;;;;;;5.22;1.50;;;15.70;66.30;;;;;;5038229;28;20040;-62
2021/05/11 05:19:08;;;;;;;3.50;2.10;;;15.60;66.00;;;;;;5038113;28;20030;-63
2021/05/11 05:21:39;;;;;;;2.55;1.92;;;15.70;66.10;;;;;;5038244;28;20516;-63
2021/05/11 05:24:15;;;;;;;3.83;1.88;;;15.70;66.00;;;;;;5039175;28;20033;-63
2021/05/11 05:26:43;;;;;;;4.90;2.10;;;15.70;66.00;;;;;;5037472;28;20654;-63
2021/05/11 05:29:11;;;;;;;3.13;1.70;;;15.80;65.80;;;;;;5035751;28;20034;-63
2021/05/11 05:31:39;;;;;;;2.25;1.92;;;15.80;65.80;;;;;;5037156;28;22217;-63
2021/05/11 05:34:07;;;;;;;2.13;1.80;;;15.80;65.90;;;;;;5043065;28;20041;-63
2021/05/11 05:36:37;;;;;;;2.40;1.83;;;15.80;65.70;;;;;;5034928;28;20033;-63
2021/05/11 05:39:05;;;;;;;1.95;1.70;;;15.90;66.00;;;;;;5035902;28;20033;-63
2021/05/11 05:41:36;;;;;;;1.92;1.83;;;15.80;65.60;;;;;;5037588;28;20041;-63
2021/05/11 05:44:06;;;;;;;1.77;1.67;;;15.90;65.60;;;;;;5037016;28;20124;-63
2021/05/11 05:46:36;;;;;;;1.88;1.77;;;15.90;65.80;;;;;;5032642;28;20504;-63
2021/05/11 05:49:05;;;;;;;1.80;1.70;;;15.90;65.50;;;;;;5036153;28;20050;-63
2021/05/11 05:51:31;;;;;;;1.90;1.80;;;15.90;65.50;;;;;;5037150;28;20037;-63
2021/05/11 05:54:02;;;;;;;2.05;1.85;;;15.90;65.70;;;;;;5035042;28;20091;-63
2021/05/11 05:56:28;;;;;;;4.03;2.17;;;15.90;65.70;;;;;;5036806;28;20033;-63
2021/05/11 05:58:58;;;;;;;4.20;2.30;;;16.00;65.60;;;;;;5036950;28;20103;-63
2021/05/11 06:01:29;;;;;;;2.83;2.05;;;15.90;65.50;;;;;;5035658;28;20076;-61
2021/05/11 06:04:14;;;;;;;2.17;1.92;;;16.00;65.50;;;;;;5037986;28;20030;-63
2021/05/11 06:06:42;;;;;;;;;;;16.00;66.30;;;;;;5038400;28;20025;-63
2021/05/11 06:09:18;;;;;;;1.77;1.67;;;16.10;65.70;;;;;;5034857;28;19917;-63
2021/05/11 06:11:50;;;;;;;2.05;1.85;;;16.10;65.90;;;;;;5034798;28;20087;-63
2021/05/11 06:19:33;;;;;;;1.95;1.85;;;16.00;65.50;;;;;;5036572;28;20103;-63
2021/05/11 06:22:03;;;;;;;1.80;1.70;;;16.00;65.70;;;;;;5036049;28;20127;-63
2021/05/11 06:24:31;;;;;;;2.20;1.95;;;16.00;65.70;;;;;;5035498;28;20060;-63
2021/05/11 06:27:04;;;;;;;1.73;1.63;;;15.90;65.70;;;;;;5037037;28;20083;-63
2021/05/11 06:29:36;;;;;;;1.80;1.70;;;15.80;65.70;;;;;;5032715;28;20780;-63
2021/05/11 06:32:03;;;;;;;2.00;1.90;;;15.80;65.90;;;;;;5038311;28;20049;-63
2021/05/11 06:34:32;;;;;;;2.13;1.98;;;15.80;65.80;;;;;;5036778;28;20083;-63
2021/05/11 06:37:01;;;;;;;2.20;2.00;;;15.80;66.20;;;;;;5034470;28;20071;-64
2021/05/11 06:39:29;;;;;;;2.05;1.90;;;15.80;66.50;;;;;;5032715;28;20060;-63
2021/05/11 06:42:02;;;;;;;1.73;1.63;;;15.80;66.80;;;;;;5034870;28;20037;-63
2021/05/11 06:55:05;;;;;;;1.90;1.80;;;15.60;67.80;;;;;;5034808;28;20086;-63
2021/05/11 06:57:30;;;;;;;2.08;1.98;;;15.50;68.40;;;;;;5034930;28;20028;-63
2021/05/11 06:59:56;;;;;;;2.00;1.90;;;15.50;68.40;;;;;;5034860;28;20033;-62
2021/05/11 07:02:26;;;;;;;3.00;1.88;;;15.50;68.60;;;;;;5026883;28;20025;-64
2021/05/11 07:04:52;;;;;;;2.00;1.90;;;15.50;68.80;;;;;;5034845;28;20404;-63
2021/05/11 07:07:19;;;;;;;1.67;1.52;;;15.50;68.60;;;;;;5031548;28;20033;-64
2021/05/11 07:10:01;;;;;;;1.80;1.70;;;15.50;68.50;;;;;;5033584;28;20523;-64
2021/05/11 07:15:23;;;;;;;1.80;1.70;;;15.50;68.30;;;;;;4984610;28;20039;-64
2021/05/11 07:18:03;;;;;;;1.90;1.80;;;15.70;68.10;;;;;;5021976;28;20044;-63
2021/05/11 07:20:29;;;;;;;1.90;1.67;;;15.70;68.50;;;;;;5034273;28;20041;-63
2021/05/11 07:22:57;;;;;;;1.92;1.30;;;15.70;68.20;;;;;;5033977;28;20029;-64
2021/05/11 07:25:26;;;;;;;1.50;1.40;;;15.80;68.10;;;;;;5033076;28;20033;-63
2021/05/11 07:28:19;;;;;;;5.90;1.73;;;15.80;67.90;;;;;;5034560;28;20046;-63
2021/05/11 07:30:30;;;;;;;1.77;1.67;;;15.90;67.70;;;;;;5033076;28;20065;-64
2021/05/11 07:32:56;;;;;;;1.60;1.50;;;15.90;67.70;;;;;;5031923;28;20095;-63
2021/05/11 07:35:23;;;;;;;1.58;1.48;;;15.90;67.70;;;;;;5032992;28;20497;-62
2021/05/11 07:37:49;;;;;;;1.90;1.80;;;16.00;67.40;;;;;;5033104;28;20462;-63
2021/05/11 07:40:20;;;;;;;4.28;1.95;;;16.00;67.40;;;;;;5034096;28;20040;-62
2021/05/11 07:42:48;;;;;;;2.00;1.80;;;16.10;67.40;;;;;;5033545;28;20572;-63
2021/05/11 07:45:25;;;;;;;1.85;1.75;;;16.20;67.30;;;;;;5034891;28;20040;-63
2021/05/11 08:02:00;;;;;;;2.30;2.10;;;16.70;65.60;;;;;;5033438;28;20043;-63
2021/05/11 08:04:38;;;;;;;1.92;1.83;;;16.70;65.20;;;;;;5035106;28;20061;-63
2021/05/11 08:15:30;;;;;;;3.17;2.10;;;16.90;64.40;;;;;;5035179;28;20585;-63
2021/05/11 08:18:19;;;;;;;2.00;1.90;;;16.90;64.30;;;;;;5033553;28;20558;-63
2021/05/11 08:28:45;;;;;;;;;;;16.90;64.10;;;;;;5037153;28;20573;-64
2021/05/11 08:31:13;;;;;;;1.98;1.88;;;17.00;64.10;;;;;;5035982;28;19921;-63
2021/05/11 08:33:43;;;;;;;3.13;2.83;;;17.10;65.00;;;;;;5033097;28;20056;-63
2021/05/11 08:36:12;;;;;;;2.80;2.60;;;17.10;64.10;;;;;;5036566;28;20033;-64
2021/05/11 08:38:38;;;;;;;2.42;2.22;;;17.20;64.10;;;;;;5036386;28;20488;-64
2021/05/11 08:41:06;;;;;;;2.83;2.63;;;17.30;64.00;;;;;;5042643;28;20045;-64
2021/05/11 08:43:41;;;;;;;2.30;2.20;;;17.40;63.60;;;;;;5036260;28;20029;-63
2021/05/11 08:46:10;;;;;;;2.75;2.13;;;17.50;63.40;;;;;;5038810;28;20064;-64
2021/05/11 08:48:38;;;;;;;2.75;2.13;;;17.60;63.30;;;;;;5037052;28;20512;-63
2021/05/11 08:51:12;;;;;;;3.38;2.60;;;17.70;63.10;;;;;;5035521;28;20037;-64
2021/05/11 09:55:03;;;;;;;5.93;4.30;;;18.30;61.80;;;;;;4992803;28;20041;-64
2021/05/11 09:57:51;;;;;;;5.10;4.35;;;18.30;61.50;;;;;;5032939;28;20045;-63
2021/05/11 10:01:16;;;;;;;5.38;4.65;;;18.30;61.50;;;;;;5034200;28;20051;-64
2021/05/11 10:47:00;;;;;;;4.82;4.07;;;18.80;60.00;;;;;;5034535;28;20061;-64
2021/05/11 10:49:37;;;;;;;4.53;4.13;;;18.80;60.00;;;;;;5034929;28;20061;-64
2021/05/11 10:52:09;;;;;;;4.45;4.05;;;18.70;59.90;;;;;;5035354;28;20508;-65
2021/05/11 10:55:00;;;;;;;5.13;4.63;;;18.70;59.90;;;;;;5034808;28;20080;-64
2021/05/11 10:58:03;;;;;;;4.68;3.95;;;18.70;59.80;;;;;;5036038;28;20029;-66
2021/05/11 11:00:56;;;;;;;5.13;4.47;;;18.70;59.90;;;;;;5034410;28;20725;-63
2021/05/11 11:03:26;;;;;;;4.85;4.32;;;18.70;60.50;;;;;;5033771;28;20503;-64
2021/05/11 11:06:04;;;;;;;6.15;4.90;;;18.70;60.30;;;;;;5030504;28;20084;-64
2021/05/11 11:08:43;;;;;;;6.90;4.63;;;18.70;60.00;;;;;;5033685;28;20289;-64
2021/05/11 11:11:12;;;;;;;5.68;4.35;;;18.60;59.90;;;;;;5034131;28;20025;-64
2021/05/11 11:13:41;;;;;;;4.22;3.92;;;18.60;60.20;;;;;;5035654;28;20033;-63
2021/05/11 11:16:10;;;;;;;5.90;4.40;;;18.60;60.80;;;;;;5035911;28;20042;-64
2021/05/11 11:18:37;;;;;;;5.85;4.72;;;18.60;60.90;;;;;;5034728;28;20029;-64
2021/05/11 11:24:05;;;;;;;5.82;5.28;;;18.70;61.10;;;;;;5034604;28;20034;-64
2021/05/11 11:26:36;;;;;;;6.15;5.00;;;18.80;60.60;;;;;;5034458;28;20041;-64
2021/05/11 11:29:07;;;;;;;5.63;5.10;;;18.80;60.80;;;;;;5032497;28;20701;-64
2021/05/11 11:31:39;;;;;;;6.10;5.50;;;18.90;61.10;;;;;;5035164;28;20044;-64
2021/05/11 11:34:25;;;;;;;6.57;5.97;;;19.00;60.90;;;;;;5034652;28;20036;-63
2021/05/11 11:36:56;;;;;;;7.22;6.53;;;19.10;60.80;;;;;;5036013;28;20492;-64
2021/05/11 11:39:28;;;;;;;7.28;6.57;;;19.10;60.30;;;;;;5036868;28;20492;-64
2021/05/11 11:41:58;;;;;;;7.07;6.38;;;19.20;59.90;;;;;;5036901;28;20033;-64
2021/05/11 11:44:33;;;;;;;6.97;6.28;;;19.20;59.90;;;;;;5033162;28;20286;-64
2021/05/11 11:47:00;;;;;;;;;;;19.20;59.70;;;;;;5035524;28;20033;-64
2021/05/11 11:49:31;;;;;;;7.10;5.97;;;19.20;59.30;;;;;;5033155;28;20224;-64
2021/05/11 11:54:46;;;;;;;6.13;5.55;;;19.20;59.20;;;;;;5036685;28;20034;-64
2021/05/11 12:00:34;;;;;;;5.15;4.68;;;19.10;59.90;;;;;;5037183;28;20036;-64
2021/05/11 12:03:11;;;;;;;6.80;5.18;;;19.10;59.80;;;;;;5034949;28;20405;-64
2021/05/11 12:05:57;;;;;;;5.07;4.57;;;19.10;60.00;;;;;;5035147;28;20036;-64
2021/05/11 12:08:33;;;;;;;5.07;4.57;;;19.00;59.80;;;;;;5035384;28;20041;-65
2021/05/11 12:11:07;;;;;;;4.85;4.35;;;19.00;60.00;;;;;;5034373;28;20041;-64
2021/05/11 12:13:33;;;;;;;4.90;4.40;;;19.00;59.90;;;;;;5038518;28;20039;-64
2021/05/11 12:16:21;;;;;;;5.60;4.45;;;19.00;60.00;;;;;;5036752;28;20029;-64
2021/05/11 12:19:08;;;;;;;5.65;4.97;;;18.90;60.30;;;;;;5036764;28;20033;-64
2021/05/11 12:21:36;;;;;;;4.60;4.20;;;18.90;60.10;;;;;;5037460;28;20038;-64
2021/05/11 12:24:09;;;;;;;4.85;4.35;;;18.90;60.00;;;;;;5032895;28;20030;-64
2021/05/11 12:26:41;;;;;;;4.82;4.03;;;18.90;60.30;;;;;;5036743;28;20025;-64
2021/05/11 12:29:13;;;;;;;5.22;4.72;;;18.90;60.60;;;;;;5037858;28;20042;-64
2021/05/11 12:31:44;;;;;;;5.75;4.65;;;18.90;61.20;;;;;;5035910;28;20029;-64
2021/05/11 12:34:14;;;;;;;5.15;4.65;;;18.80;61.30;;;;;;5036936;28;20029;-64
2021/05/11 12:36:49;;;;;;;5.93;5.00;;;18.80;61.70;;;;;;5036873;28;20091;-64
2021/05/11 12:39:34;;;;;;;6.13;5.53;;;18.80;61.80;;;;;;5037811;28;20033;-64
2021/05/11 12:42:25;;;;;;;7.45;5.00;;;18.80;61.90;;;;;;5037097;28;20034;-64
2021/05/11 12:45:07;;;;;;;6.35;4.88;;;18.80;62.20;;;;;;5026189;28;20090;-64
2021/05/11 12:47:46;;;;;;;5.38;4.88;;;18.70;62.20;;;;;;5037114;28;20029;-63
2021/05/11 12:50:37;;;;;;;5.32;4.82;;;18.70;62.50;;;;;;5036598;28;20053;-64
2021/05/11 13:00:13;;;;;;;6.33;5.20;;;18.60;63.80;;;;;;4867288;28;3420576;-64
2021/05/11 13:16:33;;;;;;;6.35;5.55;;;18.40;64.10;;;;;;5035708;28;20423;-64
2021/05/11 13:27:28;;;;;;;6.90;6.05;;;18.30;65.90;;;;;;5037646;28;20516;-64
2021/05/11 13:35:18;;;;;;;6.80;5.78;;;18.20;66.10;;;;;;5033473;28;20025;-64
2021/05/11 13:37:46;;;;;;;6.65;5.55;;;18.10;66.30;;;;;;5036132;28;20039;-64
2021/05/11 13:40:16;;;;;;;6.38;5.78;;;18.10;66.60;;;;;;5037703;28;20540;-64
2021/05/11 13:42:46;;;;;;;6.25;5.65;;;18.10;66.70;;;;;;5037326;28;20038;-64
2021/05/11 13:45:12;;;;;;;6.40;5.80;;;18.00;67.40;;;;;;5036801;28;20389;-64
2021/05/11 13:47:40;;;;;;;7.45;6.55;;;17.90;67.30;;;;;;5037163;28;20116;-64
2021/05/11 13:50:11;;;;;;;6.25;5.65;;;17.90;67.70;;;;;;5037970;28;20037;-64
2021/05/11 13:52:37;;;;;;;7.15;6.28;;;17.80;67.90;;;;;;5034860;28;20075;-64
2021/05/11 13:55:14;;;;;;;8.48;5.68;;;17.80;68.30;;;;;;5038443;28;20037;-64
2021/05/11 14:03:10;;;;;;;6.90;5.90;;;17.80;68.10;;;;;;5035791;28;20100;-64
2021/05/11 14:05:38;;;;;;;8.23;6.03;;;17.80;68.00;;;;;;5038595;28;20045;-64
2021/05/11 14:08:06;;;;;;;7.15;6.45;;;17.80;68.00;;;;;;5037148;28;20037;-64
2021/05/11 14:10:34;;;;;;;6.47;5.80;;;17.80;68.00;;;;;;5035678;28;20504;-65
2021/05/11 14:13:00;;;;;;;8.43;6.43;;;17.80;68.30;;;;;;5038357;28;20116;-64
2021/05/11 14:15:28;;;;;;;6.72;5.80;;;17.80;68.10;;;;;;5034254;28;20128;-64
2021/05/11 14:17:58;;;;;;;6.28;5.65;;;17.70;68.10;;;;;;5034576;28;20082;-64
2021/05/11 14:20:29;;;;;;;6.40;5.60;;;17.70;68.40;;;;;;5032452;28;20100;-64
2021/05/11 14:23:02;;;;;;;7.50;6.10;;;17.60;68.40;;;;;;5032414;28;20065;-64
2021/05/11 14:25:27;;;;;;;7.20;5.50;;;17.60;68.80;;;;;;5038167;28;20030;-64
2021/05/11 14:27:53;;;;;;;6.55;5.82;;;17.50;69.30;;;;;;5038027;28;20386;-64
2021/05/11 14:30:22;;;;;;;6.95;6.03;;;17.50;69.50;;;;;;5039030;28;20033;-64
2021/05/11 14:32:52;;;;;;;7.75;6.00;;;17.50;69.60;;;;;;5038126;28;20033;-65
2021/05/11 14:35:20;;;;;;;6.03;5.45;;;17.40;70.00;;;;;;5047717;28;20025;-65
2021/05/11 14:37:48;;;;;;;6.65;5.60;;;17.40;69.80;;;;;;5040663;28;20025;-65
2021/05/11 14:40:18;;;;;;;6.35;5.57;;;17.30;70.60;;;;;;5040404;28;20385;-65
2021/05/11 14:42:49;;;;;;;6.82;5.30;;;17.30;70.90;;;;;;5039486;28;20555;-65
2021/05/11 14:45:19;;;;;;;8.48;5.97;;;17.30;71.10;;;;;;5040082;28;20037;-65
2021/05/11 14:47:47;;;;;;;6.90;5.85;;;17.30;71.20;;;;;;5041414;28;20514;-65
2021/05/11 14:50:18;;;;;;;6.93;6.22;;;17.20;71.60;;;;;;5042763;28;20191;-65
2021/05/11 14:52:49;;;;;;;6.90;6.05;;;17.20;71.60;;;;;;5038933;28;20171;-64
2021/05/11 14:55:23;;;;;;;6.45;5.60;;;17.20;71.50;;;;;;5039669;28;20041;-65
2021/05/11 14:57:52;;;;;;;6.97;5.72;;;17.10;71.60;;;;;;5042228;28;20038;-65
2021/05/11 15:00:18;;;;;;;7.10;6.10;;;17.10;71.30;;;;;;5039447;28;20455;-65
2021/05/11 15:02:48;;;;;;;7.32;6.55;;;17.00;71.60;;;;;;5040175;28;20036;-65
2021/05/11 15:05:18;;;;;;;8.75;6.75;;;16.90;72.30;;;;;;5038933;28;20105;-64
2021/05/11 15:07:48;;;;;;;7.65;6.28;;;16.90;72.70;;;;;;5041045;28;20029;-64
2021/05/11 15:10:16;;;;;;;8.82;6.05;;;16.90;72.40;;;;;;5039675;28;20044;-64
2021/05/11 15:12:49;;;;;;;8.48;6.85;;;16.90;72.10;;;;;;5036489;28;20033;-64
2021/05/11 15:15:20;;;;;;;9.30;6.63;;;16.90;72.30;;;;;;5033866;28;21139;-64
2021/05/11 15:20:22;;;;;;;9.52;6.88;;;16.90;72.50;;;;;;5031977;28;20037;-64
2021/05/11 15:22:52;;;;;;;7.18;6.47;;;16.90;72.20;;;;;;5029528;28;20416;-64
2021/05/11 15:25:25;;;;;;;8.15;6.55;;;16.90;72.30;;;;;;5040024;28;20037;-64
2021/05/11 15:27:57;;;;;;;7.53;6.72;;;16.90;72.60;;;;;;5035098;28;20025;-64
2021/05/11 15:30:30;;;;;;;7.85;6.20;;;16.90;72.50;;;;;;5031090;28;20449;-64
2021/05/11 15:33:02;;;;;;;8.43;6.47;;;16.80;72.50;;;;;;5031818;28;20040;-64
2021/05/11 15:35:31;;;;;;;6.95;6.25;;;16.80;72.40;;;;;;5027793;28;20025;-64
2021/05/11 15:38:00;;;;;;;9.82;6.50;;;16.80;72.80;;;;;;5031282;28;20111;-64
2021/05/11 15:40:35;;;;;;;7.63;6.45;;;16.80;72.90;;;;;;5027149;28;20508;-64
2021/05/11 15:43:03;;;;;;;8.95;6.72;;;16.80;73.20;;;;;;5027042;28;20042;-64
2021/05/11 15:45:31;;;;;;;8.52;6.38;;;16.80;72.70;;;;;;5034073;28;20033;-65
2021/05/11 15:48:01;;;;;;;7.05;6.35;;;16.80;72.60;;;;;;5037891;28;20056;-64
2021/05/11 15:50:33;;;;;;;8.18;6.95;;;16.80;72.60;;;;;;5033972;28;20034;-64
2021/05/11 15:53:05;;;;;;;7.15;6.20;;;16.80;73.20;;;;;;5035855;28;20095;-64
2021/05/11 15:55:37;;;;;;;7.40;6.65;;;16.80;72.90;;;;;;5033126;28;20100;-64
2021/05/11 15:58:06;;;;;;;7.90;6.78;;;16.80;72.80;;;;;;5035044;28;20037;-64
2021/05/11 16:00:37;;;;;;;6.85;6.05;;;16.80;73.20;;;;;;5042803;28;20033;-64
2021/05/11 16:03:08;;;;;;;7.80;6.57;;;16.80;72.90;;;;;;5036441;28;20500;-64
2021/05/11 16:05:38;;;;;;;9.40;7.68;;;16.70;73.10;;;;;;5036329;28;20037;-64
2021/05/11 16:08:10;;;;;;;6.90;5.35;;;16.70;73.30;;;;;;5035521;28;20052;-64
2021/05/11 16:10:38;;;;;;;2.08;0.85;;;16.60;73.80;;;;;;5035442;28;20025;-64
2021/05/11 16:13:07;;;;;;;0.70;0.57;;;16.50;71.00;;;;;;5035019;28;20354;-64
2021/05/11 16:15:35;;;;;;;1.08;0.45;;;16.30;69.90;;;;;;5037824;28;20079;-64
2021/05/11 16:18:06;;;;;;;0.63;0.55;;;16.10;71.30;;;;;;5034704;28;20047;-64
2021/05/11 16:20:38;;;;;;;1.67;0.80;;;15.80;71.30;;;;;;5035964;28;20108;-65
2021/05/11 16:23:09;;;;;;;0.50;0.50;;;15.50;72.10;;;;;;5034505;28;20037;-64
2021/05/11 16:25:39;;;;;;;0.40;0.40;;;15.30;73.20;;;;;;5035896;28;20029;-64
2021/05/11 16:28:11;;;;;;;2.88;2.38;;;15.10;74.10;;;;;;5032147;28;20034;-64
2021/05/11 16:30:44;;;;;;;0.65;0.65;;;15.00;74.70;;;;;;5032302;28;20733;-64
2021/05/11 16:33:12;;;;;;;2.30;0.70;;;14.80;74.70;;;;;;5028617;28;20072;-64
2021/05/11 16:35:45;;;;;;;0.90;0.60;;;14.70;74.60;;;;;;5026542;28;20489;-64
2021/05/11 16:38:12;;;;;;;4.13;0.70;;;14.60;75.30;;;;;;5026884;28;20029;-64
2021/05/11 16:40:42;;;;;;;0.70;0.60;;;14.50;75.50;;;;;;5026983;28;20029;-64
2021/05/11 16:43:08;;;;;;;1.65;0.50;;;14.50;76.00;;;;;;5046495;28;20030;-64
2021/05/11 16:45:36;;;;;;;0.60;0.52;;;14.40;76.00;;;;;;5034381;28;20040;-64
2021/05/11 16:48:07;;;;;;;0.50;0.50;;;14.30;76.20;;;;;;5030439;28;20045;-64
2021/05/11 16:50:37;;;;;;;1.42;0.60;;;14.20;76.60;;;;;;5032798;28;20033;-64
2021/05/11 16:53:07;;;;;;;1.55;0.85;;;14.20;76.80;;;;;;5027051;28;20412;-64
2021/05/11 16:55:35;;;;;;;1.02;0.70;;;14.10;76.80;;;;;;5030493;28;20091;-64
2021/05/11 16:58:03;;;;;;;1.08;0.70;;;14.10;77.00;;;;;;5033404;28;20046;-64
2021/05/11 17:00:32;;;;;;;0.70;0.50;;;14.10;77.30;;;;;;5032500;28;20034;-64
2021/05/11 17:03:02;;;;;;;0.77;0.77;;;14.00;77.20;;;;;;5035420;28;20513;-64
2021/05/11 17:05:34;;;;;;;0.73;0.70;;;14.00;77.40;;;;;;5038388;28;20038;-64
2021/05/11 17:08:01;;;;;;;0.70;0.65;;;14.00;77.80;;;;;;5038336;28;20120;-64
2021/05/11 17:10:30;;;;;;;0.70;0.57;;;14.00;77.70;;;;;;5034283;28;20029;-64
2021/05/11 17:12:59;;;;;;;0.77;0.68;;;14.00;78.00;;;;;;5032945;28;20030;-64
2021/05/11 17:15:29;;;;;;;0.70;0.60;;;14.00;78.00;;;;;;5035587;28;20434;-64
2021/05/11 17:17:56;;;;;;;0.50;0.50;;;14.00;78.00;;;;;;5035673;28;20030;-64
2021/05/11 17:20:30;;;;;;;0.82;0.60;;;14.10;78.70;;;;;;5039206;28;20028;-64
2021/05/11 17:23:01;;;;;;;1.27;0.80;;;14.10;78.00;;;;;;5034727;28;20025;-64
2021/05/11 17:25:31;;;;;;;1.80;1.33;;;14.10;77.70;;;;;;5036166;28;20350;-64
2021/05/11 17:28:01;;;;;;;4.10;2.30;;;14.10;77.70;;;;;;5037215;28;20583;-64
2021/05/11 17:30:29;;;;;;;1.73;0.98;;;14.10;77.60;;;;;;5034308;28;20041;-64
2021/05/11 17:32:58;;;;;;;0.77;0.68;;;14.10;77.40;;;;;;5036975;28;20056;-64
2021/05/11 17:35:31;;;;;;;0.80;0.60;;;14.10;77.50;;;;;;5049809;28;20026;-64
2021/05/11 17:37:57;;;;;;;0.75;0.40;;;14.20;77.70;;;;;;5031318;28;20038;-64
2021/05/11 17:40:30;;;;;;;0.75;0.70;;;14.10;77.50;;;;;;5033671;28;20537;-64